createdAt,value
2019-03-22T00:01:14.620Z,27.60
2019-03-22T00:03:16.825Z,30.07
2019-03-22T00:05:19.034Z,34.80
2019-03-22T00:07:21.528Z,34.17
2019-03-22T00:09:23.733Z,29.53
2019-03-22T00:11:25.950Z,28.60
2019-03-22T00:13:28.157Z,25.00
2019-03-22T00:15:30.449Z,23.97
2019-03-22T00:17:32.660Z,22.23
2019-03-22T00:19:34.865Z,25.87
2019-03-22T00:21:37.076Z,25.10
2019-03-22T00:23:39.569Z,23.77
2019-03-22T00:25:41.765Z,24.30
2019-03-22T00:27:43.989Z,20.33
2019-03-22T00:29:46.992Z,20.47
2019-03-22T00:31:49.690Z,20.10
2019-03-22T00:33:51.897Z,21.47
2019-03-22T00:35:54.099Z,17.43
2019-03-22T00:37:56.306Z,18.63
2019-03-22T00:39:58.518Z,15.50
2019-03-22T00:42:00.725Z,16.20
2019-03-22T00:44:02.939Z,17.07
2019-03-22T00:46:05.392Z,13.00
2019-03-22T00:48:07.616Z,16.60
2019-03-22T00:50:10.233Z,18.60
2019-03-22T00:52:12.765Z,19.80
2019-03-22T00:54:15.212Z,28.83
2019-03-22T00:56:17.434Z,22.30
2019-03-22T00:58:19.633Z,24.20
2019-03-22T01:00:21.842Z,26.50
2019-03-22T01:02:24.067Z,25.00
2019-03-22T01:04:26.629Z,28.50
2019-03-22T01:06:28.841Z,29.80
2019-03-22T01:08:31.050Z,29.87
2019-03-22T01:10:33.262Z,24.73
2019-03-22T01:12:35.481Z,29.23
2019-03-22T01:14:38.049Z,31.93
2019-03-22T01:16:40.265Z,31.77
2019-03-22T01:18:42.478Z,30.40
2019-03-22T01:20:44.684Z,32.97
2019-03-22T01:22:47.015Z,37.87
2019-03-22T01:24:49.226Z,36.03
2019-03-22T01:26:51.450Z,38.80
2019-03-22T01:28:53.665Z,39.37
2019-03-22T01:30:55.868Z,39.33
2019-03-22T01:32:58.089Z,38.60
2019-03-22T01:35:00.371Z,31.00
2019-03-22T01:37:02.613Z,29.77
2019-03-22T01:39:05.551Z,29.43
2019-03-22T01:41:07.756Z,31.20
2019-03-22T01:43:10.280Z,27.90
2019-03-22T01:45:14.425Z,27.20
2019-03-22T01:47:16.641Z,26.27
2019-03-22T01:49:18.849Z,27.70
2019-03-22T01:51:21.067Z,22.17
2019-03-22T01:53:23.376Z,21.73
2019-03-22T01:55:25.921Z,18.40
2019-03-22T01:57:28.157Z,23.17
2019-03-22T01:59:30.453Z,33.97
2019-03-22T02:01:32.658Z,30.00
2019-03-22T02:03:34.873Z,27.10
2019-03-22T02:05:37.094Z,21.57
2019-03-22T02:07:39.309Z,18.07
2019-03-22T02:09:41.714Z,22.27
2019-03-22T02:11:43.919Z,17.97
2019-03-22T02:13:46.133Z,17.90
2019-03-22T02:15:48.342Z,14.80
2019-03-22T02:17:50.558Z,19.37
2019-03-22T02:19:53.069Z,21.40
2019-03-22T02:21:55.281Z,22.90
2019-03-22T02:23:57.496Z,20.97
2019-03-22T02:25:59.702Z,23.73
2019-03-22T02:28:04.387Z,30.70
2019-03-22T02:30:06.287Z,31.80
2019-03-22T02:32:08.504Z,25.33
2019-03-22T02:34:10.719Z,24.93
2019-03-22T02:36:12.938Z,33.87
2019-03-22T02:38:15.163Z,43.50
2019-03-22T02:40:17.629Z,44.70
2019-03-22T02:42:19.841Z,34.30
2019-03-22T02:44:22.049Z,34.83
2019-03-22T02:46:24.265Z,42.80
2019-03-22T02:48:26.477Z,41.13
2019-03-22T02:50:28.677Z,34.77
2019-03-22T02:52:30.924Z,29.30
2019-03-22T02:54:33.135Z,27.70
2019-03-22T02:56:35.602Z,29.33
2019-03-22T02:58:37.917Z,30.87
2019-03-22T03:00:40.126Z,50.83
2019-03-22T03:02:42.602Z,36.30
2019-03-22T03:04:45.134Z,32.23
2019-03-22T03:06:47.357Z,35.63
2019-03-22T03:08:49.570Z,31.80
2019-03-22T03:10:51.785Z,37.93
2019-03-22T03:12:54.062Z,51.20
2019-03-22T03:14:56.567Z,45.63
2019-03-22T03:16:58.833Z,43.77
2019-03-22T03:19:01.070Z,50.13
2019-03-22T03:21:03.454Z,42.47
2019-03-22T03:23:05.699Z,37.70
2019-03-22T03:25:08.064Z,40.40
2019-03-22T03:27:10.565Z,36.60
2019-03-22T03:29:12.786Z,34.80
2019-03-22T03:31:15.011Z,36.93
2019-03-22T03:33:17.336Z,42.33
2019-03-22T03:35:19.676Z,38.37
2019-03-22T03:37:21.961Z,37.50
2019-03-22T03:39:24.278Z,34.97
2019-03-22T03:41:26.485Z,41.30
2019-03-22T03:43:28.704Z,36.73
2019-03-22T03:45:34.638Z,35.10
2019-03-22T03:47:36.930Z,35.10
2019-03-22T03:49:39.873Z,35.80
2019-03-22T03:51:42.095Z,32.27
2019-03-22T03:53:44.320Z,32.93
2019-03-22T03:55:46.537Z,32.83
2019-03-22T03:57:48.744Z,29.20
2019-03-22T03:59:50.966Z,33.90
2019-03-22T04:01:53.177Z,31.43
2019-03-22T04:03:55.394Z,30.87
2019-03-22T04:05:57.605Z,25.43
2019-03-22T04:07:59.812Z,29.30
2019-03-22T04:10:02.069Z,29.73
2019-03-22T04:12:04.299Z,30.87
2019-03-22T04:14:06.602Z,27.33
2019-03-22T04:16:09.154Z,21.73
2019-03-22T04:18:11.394Z,26.97
2019-03-22T04:20:13.694Z,34.10
2019-03-22T04:22:15.898Z,34.77
2019-03-22T04:24:18.122Z,38.40
2019-03-22T04:26:20.329Z,37.13
2019-03-22T04:28:22.547Z,34.57
2019-03-22T04:30:24.763Z,32.60
2019-03-22T04:32:27.311Z,35.87
2019-03-22T04:34:29.626Z,36.63
2019-03-22T04:36:31.842Z,36.27
2019-03-22T04:38:34.036Z,36.43
2019-03-22T04:40:36.253Z,37.83
2019-03-22T04:42:38.466Z,34.30
2019-03-22T04:44:41.643Z,26.33
2019-03-22T04:46:43.853Z,25.80
2019-03-22T04:48:46.317Z,22.27
2019-03-22T04:50:48.530Z,25.23
2019-03-22T04:52:51.072Z,27.93
2019-03-22T04:54:53.295Z,30.23
2019-03-22T04:56:55.517Z,30.07
2019-03-22T04:58:57.730Z,30.10
2019-03-22T05:00:59.937Z,25.63
2019-03-22T05:03:02.442Z,26.93
2019-03-22T05:05:04.729Z,24.40
2019-03-22T05:07:07.442Z,33.30
2019-03-22T05:09:09.661Z,35.57
2019-03-22T05:11:11.876Z,27.47
2019-03-22T05:13:14.081Z,31.27
2019-03-22T05:15:16.416Z,29.53
2019-03-22T05:17:18.925Z,29.83
2019-03-22T05:19:21.141Z,29.00
2019-03-22T05:21:23.914Z,32.13
2019-03-22T05:23:26.119Z,34.33
2019-03-22T05:25:28.329Z,38.10
2019-03-22T05:27:30.585Z,41.60
2019-03-22T05:29:32.809Z,38.17
2019-03-22T05:31:45.373Z,36.83
2019-03-22T05:33:47.588Z,36.43
2019-03-22T05:35:49.806Z,44.13
2019-03-22T05:37:52.012Z,50.60
2019-03-22T05:39:54.466Z,32.37
2019-03-22T05:41:56.669Z,31.40
2019-03-22T05:43:58.977Z,33.00
2019-03-22T05:46:01.193Z,35.67
2019-03-22T05:48:03.401Z,38.07
2019-03-22T05:50:05.697Z,39.27
2019-03-22T05:52:07.910Z,49.37
2019-03-22T05:54:10.362Z,53.53
2019-03-22T05:56:12.596Z,53.77
2019-03-22T05:58:14.793Z,54.13
2019-03-22T06:00:17.609Z,54.77
2019-03-22T06:02:19.811Z,55.87
2019-03-22T06:04:22.023Z,57.40
2019-03-22T06:06:24.241Z,58.73
2019-03-22T06:08:26.713Z,57.07
2019-03-22T06:10:28.934Z,55.50
2019-03-22T06:12:31.140Z,55.63
2019-03-22T06:14:33.697Z,57.77
2019-03-22T06:16:35.905Z,55.93
2019-03-22T06:18:38.121Z,49.07
2019-03-22T06:20:40.355Z,50.43
2019-03-22T06:22:42.580Z,51.27
2019-03-22T06:24:44.793Z,49.77
2019-03-22T06:26:47.010Z,46.63
2019-03-22T06:28:49.227Z,44.93
2019-03-22T06:30:51.429Z,43.73
2019-03-22T06:32:53.638Z,42.20
2019-03-22T06:34:56.766Z,40.47
2019-03-22T06:36:58.992Z,44.10
2019-03-22T06:39:01.198Z,42.80
2019-03-22T06:41:03.422Z,42.80
2019-03-22T06:43:05.626Z,42.03
2019-03-22T06:45:07.854Z,40.30
2019-03-22T06:47:11.208Z,40.67
2019-03-22T06:49:13.957Z,41.47
2019-03-22T06:51:16.169Z,43.30
2019-03-22T06:53:18.382Z,42.13
2019-03-22T06:55:20.613Z,42.63
2019-03-22T06:57:22.830Z,47.70
2019-03-22T06:59:25.039Z,45.90
2019-03-22T07:01:27.273Z,48.33
2019-03-22T07:03:29.472Z,51.00
2019-03-22T07:05:31.942Z,50.57
2019-03-22T07:07:34.149Z,49.23
2019-03-22T07:09:36.357Z,53.40
2019-03-22T07:11:38.607Z,60.43
2019-03-22T07:13:40.822Z,62.27
2019-03-22T07:15:43.306Z,64.03
2019-03-22T07:17:45.523Z,65.07
2019-03-22T07:19:47.729Z,66.40
2019-03-22T07:21:49.939Z,63.97
2019-03-22T07:23:52.246Z,68.27
2019-03-22T07:25:54.749Z,62.60
2019-03-22T07:27:57.184Z,62.77
2019-03-22T07:29:59.389Z,62.00
2019-03-22T07:32:01.613Z,60.43
2019-03-22T07:34:03.821Z,59.67
2019-03-22T07:36:06.029Z,59.47
2019-03-22T07:38:08.247Z,57.87
2019-03-22T07:40:10.615Z,57.87
2019-03-22T07:42:12.830Z,54.77
2019-03-22T07:44:15.335Z,58.43
2019-03-22T07:46:17.612Z,57.07
2019-03-22T07:48:20.055Z,56.87
2019-03-22T07:50:22.257Z,55.10
2019-03-22T07:52:24.472Z,60.37
2019-03-22T07:54:26.676Z,58.50
2019-03-22T07:56:28.897Z,58.20
2019-03-22T07:58:31.101Z,56.13
2019-03-22T08:00:33.621Z,61.00
2019-03-22T08:02:35.841Z,56.07
2019-03-22T08:04:38.050Z,64.63
2019-03-22T08:06:40.273Z,64.40
2019-03-22T08:08:42.473Z,57.40
2019-03-22T08:10:44.668Z,60.53
2019-03-22T08:12:47.213Z,58.60
2019-03-22T08:14:49.515Z,54.93
2019-03-22T08:16:51.793Z,60.77
2019-03-22T08:18:54.281Z,60.00
2019-03-22T08:20:56.489Z,57.20
2019-03-22T08:22:58.705Z,56.70
2019-03-22T08:25:01.153Z,57.77
2019-03-22T08:27:03.437Z,57.70
2019-03-22T08:29:05.918Z,59.47
2019-03-22T08:31:08.227Z,56.57
2019-03-22T08:33:10.509Z,62.47
2019-03-22T08:35:12.709Z,59.10
2019-03-22T08:37:15.190Z,56.53
2019-03-22T08:39:17.669Z,65.87
2019-03-22T08:41:19.920Z,59.60
2019-03-22T08:43:22.243Z,57.90
2019-03-22T08:45:24.847Z,57.83
2019-03-22T08:47:33.996Z,57.20
2019-03-22T08:49:31.377Z,57.10
2019-03-22T08:51:33.957Z,58.97
2019-03-22T08:53:36.173Z,56.60
2019-03-22T08:55:38.508Z,59.20
2019-03-22T08:57:40.798Z,59.30
2019-03-22T08:59:43.102Z,60.03
2019-03-22T09:01:45.317Z,58.73
2019-03-22T09:03:47.536Z,60.17
2019-03-22T09:05:49.741Z,60.17
2019-03-22T09:07:52.010Z,57.20
2019-03-22T09:09:54.261Z,56.27
2019-03-22T09:11:56.478Z,59.33
2019-03-22T09:13:58.801Z,54.80
2019-03-22T09:16:01.053Z,55.57
2019-03-22T09:18:03.314Z,55.97
2019-03-22T09:20:06.162Z,57.00
2019-03-22T09:22:08.497Z,55.67
2019-03-22T09:24:10.777Z,56.00
2019-03-22T09:26:13.077Z,54.33
2019-03-22T09:28:15.305Z,57.20
2019-03-22T09:30:17.768Z,54.87
2019-03-22T09:32:20.242Z,56.07
2019-03-22T09:34:33.160Z,58.40
2019-03-22T09:36:26.884Z,57.23
2019-03-22T09:38:29.178Z,54.50
2019-03-22T09:40:31.425Z,58.67
2019-03-22T09:42:33.738Z,56.20
2019-03-22T09:44:43.341Z,57.97
2019-03-22T09:46:40.679Z,54.13
2019-03-22T09:48:42.987Z,54.87
2019-03-22T09:50:45.273Z,56.23
2019-03-22T09:52:47.756Z,49.10
2019-03-22T09:54:50.030Z,55.37
2019-03-22T09:56:52.408Z,56.80
2019-03-22T09:58:54.671Z,54.00
2019-03-22T10:00:57.387Z,51.20
2019-03-22T10:03:00.134Z,55.00
2019-03-22T10:05:02.786Z,54.87
2019-03-22T10:07:05.285Z,53.83
2019-03-22T10:09:07.877Z,52.83
2019-03-22T10:11:11.193Z,56.97
2019-03-22T10:13:13.692Z,51.40
2019-03-22T10:15:17.381Z,49.67
2019-03-22T10:17:19.986Z,52.23
2019-03-22T10:19:22.354Z,51.70
2019-03-22T10:21:24.760Z,48.73
2019-03-22T10:23:29.425Z,54.37
2019-03-22T10:25:32.153Z,51.07
2019-03-22T10:27:37.707Z,51.07
2019-03-22T10:29:40.237Z,50.10
2019-03-22T10:31:42.982Z,49.63
2019-03-22T10:33:45.324Z,50.10
2019-03-22T10:35:47.622Z,49.10
2019-03-22T10:37:49.832Z,46.57
2019-03-22T10:39:52.034Z,45.40
2019-03-22T10:41:54.248Z,44.63
2019-03-22T10:43:56.623Z,48.57
2019-03-22T10:45:59.217Z,48.40
2019-03-22T10:48:01.490Z,46.40
2019-03-22T10:50:04.327Z,45.57
2019-03-22T10:52:06.526Z,46.67
2019-03-22T10:54:08.738Z,45.03
2019-03-22T10:56:11.325Z,45.30
2019-03-22T10:58:21.001Z,44.63
2019-03-22T11:00:18.993Z,43.30
2019-03-22T11:02:21.189Z,46.17
2019-03-22T11:04:23.401Z,47.30
2019-03-22T11:06:26.555Z,46.40
2019-03-22T11:08:29.424Z,43.53
2019-03-22T11:10:31.618Z,46.33
2019-03-22T11:12:33.825Z,40.70
2019-03-22T11:14:36.054Z,42.57
2019-03-22T11:16:38.357Z,42.63
2019-03-22T11:18:40.584Z,45.47
2019-03-22T11:20:43.033Z,41.90
2019-03-22T11:22:45.309Z,41.70
2019-03-22T11:24:47.961Z,37.87
2019-03-22T11:26:50.452Z,40.50
2019-03-22T11:28:52.661Z,41.40
2019-03-22T11:31:01.139Z,39.60
2019-03-22T11:32:58.977Z,41.77
2019-03-22T11:35:01.190Z,43.70
2019-03-22T11:37:03.393Z,38.00
2019-03-22T11:39:15.155Z,42.90
2019-03-22T11:41:12.107Z,41.03
2019-03-22T11:43:14.329Z,43.53
2019-03-22T11:45:17.097Z,41.33
2019-03-22T11:47:19.309Z,41.87
2019-03-22T11:49:21.525Z,37.10
2019-03-22T11:51:23.734Z,41.37
2019-03-22T11:53:25.949Z,37.77
2019-03-22T11:55:28.153Z,38.80
2019-03-22T11:57:30.365Z,40.10
2019-03-22T11:59:32.578Z,39.13
2019-03-22T12:01:34.784Z,40.27
2019-03-22T12:03:36.998Z,41.77
2019-03-22T12:05:40.641Z,41.23
2019-03-22T12:07:43.105Z,41.50
2019-03-22T12:09:45.316Z,44.43
2019-03-22T12:11:47.525Z,44.70
2019-03-22T12:13:49.716Z,44.17
2019-03-22T12:15:51.915Z,41.80
2019-03-22T12:17:54.151Z,42.87
2019-03-22T12:19:56.456Z,42.47
2019-03-22T12:21:58.661Z,43.30
2019-03-22T12:24:00.892Z,45.00
2019-03-22T12:26:03.505Z,44.40
2019-03-22T12:28:05.985Z,45.70
2019-03-22T12:30:12.845Z,44.20
2019-03-22T12:32:15.041Z,43.87
2019-03-22T12:34:17.517Z,42.17
2019-03-22T12:36:19.727Z,39.00
2019-03-22T12:38:21.934Z,40.33
2019-03-22T12:40:24.151Z,40.97
2019-03-22T12:42:26.357Z,42.17
2019-03-22T12:44:28.571Z,39.93
2019-03-22T12:46:30.784Z,40.90
2019-03-22T12:48:32.989Z,39.73
2019-03-22T12:50:35.205Z,41.10
2019-03-22T12:52:37.409Z,41.17
2019-03-22T12:54:39.609Z,39.73
2019-03-22T12:56:41.828Z,41.53
2019-03-22T12:58:44.037Z,40.50
2019-03-22T13:00:46.369Z,40.10
2019-03-22T13:02:48.696Z,37.93
2019-03-22T13:04:50.897Z,40.27
2019-03-22T13:06:53.271Z,38.50
2019-03-22T13:08:55.717Z,39.87
2019-03-22T13:10:57.928Z,39.10
2019-03-22T13:13:00.138Z,39.80
2019-03-22T13:15:02.702Z,39.63
2019-03-22T13:17:04.914Z,41.00
2019-03-22T13:19:07.117Z,40.23
2019-03-22T13:21:09.442Z,39.40
2019-03-22T13:23:11.653Z,39.30
2019-03-22T13:25:13.989Z,37.00
2019-03-22T13:27:16.196Z,32.60
2019-03-22T13:29:18.397Z,32.00
2019-03-22T13:31:20.610Z,34.77
2019-03-22T13:33:22.817Z,38.50
2019-03-22T13:35:25.025Z,38.20
2019-03-22T13:37:27.241Z,36.23
2019-03-22T13:39:29.449Z,35.80
2019-03-22T13:41:31.652Z,38.90
2019-03-22T13:43:33.865Z,36.97
2019-03-22T13:45:36.080Z,38.27
2019-03-22T13:47:38.272Z,33.97
2019-03-22T13:49:40.477Z,36.47
2019-03-22T13:51:42.789Z,37.90
2019-03-22T13:53:44.994Z,36.87
2019-03-22T13:55:47.225Z,35.17
2019-03-22T13:57:49.534Z,35.60
2019-03-22T13:59:51.756Z,35.10
2019-03-22T14:01:54.070Z,37.20
2019-03-22T14:03:56.640Z,34.90
2019-03-22T14:05:59.018Z,35.80
2019-03-22T14:08:01.227Z,36.30
2019-03-22T14:10:03.765Z,32.87
2019-03-22T14:12:05.965Z,33.87
2019-03-22T14:14:08.437Z,35.77
2019-03-22T14:16:10.648Z,33.93
2019-03-22T14:18:12.857Z,31.13
2019-03-22T14:20:15.066Z,31.53
2019-03-22T14:22:17.274Z,32.00
2019-03-22T14:24:19.477Z,32.00
2019-03-22T14:26:21.690Z,31.50
2019-03-22T14:28:23.890Z,28.70
2019-03-22T14:30:26.105Z,32.90
2019-03-22T14:32:28.308Z,35.20
2019-03-22T14:34:30.516Z,34.30
2019-03-22T14:36:32.907Z,34.60
2019-03-22T14:38:35.109Z,29.87
2019-03-22T14:40:37.329Z,34.40
2019-03-22T14:42:39.527Z,34.17
2019-03-22T14:44:41.729Z,33.10
2019-03-22T14:46:43.946Z,31.70
2019-03-22T14:48:46.141Z,32.40
2019-03-22T14:50:48.350Z,33.97
2019-03-22T14:52:50.554Z,32.80
2019-03-22T14:54:53.081Z,34.97
2019-03-22T14:56:55.308Z,37.10
2019-03-22T14:58:57.505Z,35.77
2019-03-22T15:00:59.729Z,33.33
2019-03-22T15:03:03.837Z,35.77
2019-03-22T15:05:06.036Z,33.17
2019-03-22T15:07:19.224Z,31.97
2019-03-22T15:09:12.357Z,30.73
2019-03-22T15:11:14.820Z,32.83
2019-03-22T15:13:17.417Z,30.63
2019-03-22T15:15:29.222Z,32.23
2019-03-22T15:18:09.747Z,30.97
2019-03-22T15:20:46.874Z,33.00
2019-03-22T15:23:01.323Z,31.87
2019-03-22T15:25:19.562Z,32.50
2019-03-22T15:27:39.933Z,30.30
2019-03-22T15:29:57.615Z,30.90
2019-03-22T15:32:14.086Z,30.43
2019-03-22T15:34:41.989Z,34.60
2019-03-22T15:37:08.207Z,33.17
2019-03-22T15:39:29.918Z,32.23
2019-03-22T15:41:32.836Z,32.47
2019-03-22T15:43:35.037Z,32.00
2019-03-22T15:45:37.239Z,32.07
2019-03-22T15:47:39.784Z,33.60
2019-03-22T15:49:41.973Z,33.17
2019-03-22T15:51:44.189Z,34.73
2019-03-22T15:53:46.688Z,33.83
2019-03-22T15:55:49.206Z,33.47
2019-03-22T15:57:51.497Z,34.13
2019-03-22T15:59:53.993Z,35.00
2019-03-22T16:01:56.210Z,35.03
2019-03-22T16:03:58.653Z,36.50
2019-03-22T16:06:00.853Z,33.37
2019-03-22T16:08:03.099Z,35.37
2019-03-22T16:10:05.946Z,34.60
2019-03-22T16:12:08.159Z,35.80
2019-03-22T16:14:10.365Z,33.20
2019-03-22T16:16:12.565Z,35.20
2019-03-22T16:18:14.778Z,34.60
2019-03-22T16:20:16.980Z,36.43
2019-03-22T16:22:19.193Z,35.63
2019-03-22T16:24:21.394Z,36.23
2019-03-22T16:26:23.592Z,35.07
2019-03-22T16:28:25.809Z,37.53
2019-03-22T16:30:28.292Z,37.00
2019-03-22T16:32:30.505Z,37.30
2019-03-22T16:34:32.706Z,38.70
2019-03-22T16:36:34.910Z,39.53
2019-03-22T16:38:37.120Z,38.07
2019-03-22T16:40:39.317Z,38.30
2019-03-22T16:42:41.530Z,39.07
2019-03-22T16:44:43.734Z,37.73
2019-03-22T16:46:45.932Z,38.50
2019-03-22T16:48:48.145Z,39.10
2019-03-22T16:50:50.350Z,39.47
2019-03-22T16:52:52.840Z,40.90
2019-03-22T16:54:55.032Z,41.03
2019-03-22T16:56:57.258Z,41.20
2019-03-22T16:58:59.461Z,42.90
2019-03-22T17:01:01.657Z,41.17
2019-03-22T17:03:04.857Z,42.00
2019-03-22T17:05:07.085Z,41.30
2019-03-22T17:07:09.541Z,41.03
2019-03-22T17:09:11.733Z,41.83
2019-03-22T17:11:13.934Z,41.30
2019-03-22T17:13:16.143Z,41.80
2019-03-22T17:15:18.354Z,41.80
2019-03-22T17:17:20.573Z,43.20
2019-03-22T17:19:23.117Z,41.30
2019-03-22T17:21:25.321Z,41.90
2019-03-22T17:23:27.551Z,43.93
2019-03-22T17:25:29.745Z,43.47
2019-03-22T17:27:31.956Z,46.30
2019-03-22T17:29:34.153Z,42.43
2019-03-22T17:31:36.366Z,47.40
2019-03-22T17:33:38.578Z,42.67
2019-03-22T17:35:41.033Z,45.00
2019-03-22T17:37:43.249Z,45.00
2019-03-22T17:39:45.445Z,44.67
2019-03-22T17:41:47.908Z,47.03
2019-03-22T17:43:50.113Z,44.53
2019-03-22T17:45:52.313Z,49.80
2019-03-22T17:47:54.525Z,46.20
2019-03-22T17:49:56.733Z,48.57
2019-03-22T17:51:58.933Z,44.80
2019-03-22T17:54:01.147Z,48.87
2019-03-22T17:56:03.344Z,50.57
2019-03-22T17:58:05.570Z,47.43
2019-03-22T18:00:07.989Z,49.60
2019-03-22T18:02:10.208Z,47.80
2019-03-22T18:04:12.409Z,50.27
2019-03-22T18:06:14.917Z,51.37
2019-03-22T18:08:17.132Z,52.10
2019-03-22T18:10:19.334Z,52.60
2019-03-22T18:12:21.548Z,51.60
2019-03-22T18:14:23.748Z,53.03
2019-03-22T18:16:25.949Z,50.93
2019-03-22T18:18:28.173Z,51.50
2019-03-22T18:20:30.371Z,52.70
2019-03-22T18:22:32.946Z,51.43
2019-03-22T18:24:35.466Z,54.40
2019-03-22T18:26:37.670Z,52.50
2019-03-22T18:29:34.600Z,54.47
2019-03-22T18:31:36.824Z,54.63
2019-03-22T18:33:39.120Z,52.07
2019-03-22T18:35:41.343Z,55.33
2019-03-22T18:37:43.570Z,56.07
2019-03-22T18:39:45.765Z,57.50
2019-03-22T18:41:47.985Z,57.77
2019-03-22T18:43:50.189Z,57.67
2019-03-22T18:45:52.434Z,58.40
2019-03-22T18:47:54.663Z,59.83
2019-03-22T18:49:56.870Z,63.70
2019-03-22T18:51:59.074Z,60.90
2019-03-22T18:54:01.285Z,58.07
2019-03-22T18:56:03.589Z,59.50
2019-03-22T18:58:05.824Z,62.07
2019-03-22T19:00:08.397Z,61.90
2019-03-22T19:02:10.622Z,60.80
2019-03-22T19:04:13.069Z,61.23
2019-03-22T19:06:15.274Z,62.80
2019-03-22T19:08:17.507Z,64.53
2019-03-22T19:10:19.724Z,62.73
2019-03-22T19:12:22.005Z,65.40
2019-03-22T19:14:24.224Z,65.60
2019-03-22T19:16:26.748Z,62.83
2019-03-22T19:18:28.969Z,65.00
2019-03-22T19:20:31.181Z,66.47
2019-03-22T19:22:33.714Z,63.33
2019-03-22T19:24:36.141Z,63.93
2019-03-22T19:26:38.345Z,65.37
2019-03-22T19:28:40.557Z,64.37
2019-03-22T19:30:42.776Z,63.47
2019-03-22T19:32:45.000Z,62.43
2019-03-22T19:34:54.363Z,63.07
2019-03-22T19:36:51.312Z,64.70
2019-03-22T19:38:53.529Z,63.53
2019-03-22T19:40:55.732Z,62.63
2019-03-22T19:42:57.937Z,61.40
2019-03-22T19:45:00.273Z,61.57
2019-03-22T19:47:02.564Z,64.87
2019-03-22T19:49:04.800Z,66.13
2019-03-22T19:51:07.001Z,63.63
2019-03-22T19:53:09.224Z,65.63
2019-03-22T19:55:12.045Z,66.00
2019-03-22T19:57:14.276Z,75.00
2019-03-22T19:59:16.485Z,63.03
2019-03-22T20:01:18.698Z,63.37
2019-03-22T20:03:20.909Z,56.80
2019-03-22T20:05:27.223Z,57.13
2019-03-22T20:07:29.674Z,59.87
2019-03-22T20:09:31.910Z,55.63
2019-03-22T20:11:34.254Z,56.83
2019-03-22T20:13:36.540Z,55.07
2019-03-22T20:15:38.752Z,54.50
2019-03-22T20:17:40.967Z,54.40
2019-03-22T20:19:43.189Z,51.07
2019-03-22T20:21:45.404Z,50.20
2019-03-22T20:23:53.578Z,49.40
2019-03-22T20:25:51.722Z,50.17
2019-03-22T20:27:53.929Z,48.60
2019-03-22T20:29:56.159Z,48.60
2019-03-22T20:31:58.380Z,48.30
2019-03-22T20:34:00.857Z,48.73
2019-03-22T20:36:03.100Z,49.57
2019-03-22T20:38:05.301Z,47.00
2019-03-22T20:40:07.545Z,46.90
2019-03-22T20:42:09.772Z,48.97
2019-03-22T20:44:12.083Z,47.40
2019-03-22T20:46:14.300Z,48.70
2019-03-22T20:48:16.509Z,50.57
2019-03-22T20:50:19.002Z,52.77
2019-03-22T20:52:21.221Z,50.93
2019-03-22T20:54:23.428Z,50.97
2019-03-22T20:56:25.889Z,49.80
2019-03-22T20:58:28.106Z,54.07
2019-03-22T21:00:30.318Z,48.23
2019-03-22T21:02:32.529Z,49.07
2019-03-22T21:04:34.849Z,48.43
2019-03-22T21:06:37.060Z,47.60
2019-03-22T21:08:39.393Z,49.63
2019-03-22T21:10:41.697Z,49.80
2019-03-22T21:12:43.896Z,46.57
2019-03-22T21:14:46.914Z,48.73
2019-03-22T21:16:49.127Z,50.80
2019-03-22T21:18:51.356Z,51.30
2019-03-22T21:20:53.845Z,52.20
2019-03-22T21:22:56.047Z,51.57
2019-03-22T21:24:58.273Z,51.20
2019-03-22T21:27:00.486Z,52.70
2019-03-22T21:29:03.093Z,51.70
2019-03-22T21:31:05.382Z,51.50
2019-03-22T21:33:07.591Z,49.63
2019-03-22T21:35:09.806Z,53.13
2019-03-22T21:37:12.036Z,55.40
2019-03-22T21:39:14.252Z,52.93
2019-03-22T21:41:16.446Z,60.07
2019-03-22T21:43:18.650Z,56.07
2019-03-22T21:45:21.389Z,56.73
2019-03-22T21:47:23.657Z,53.80
2019-03-22T21:49:25.895Z,52.93
2019-03-22T21:51:28.094Z,49.17
2019-03-22T21:53:30.348Z,47.23
2019-03-22T21:55:32.645Z,45.57
2019-03-22T21:57:34.864Z,44.23
2019-03-22T21:59:37.077Z,43.30
2019-03-22T22:01:39.280Z,42.70
2019-03-22T22:03:41.501Z,42.40
2019-03-22T22:05:47.789Z,38.00
2019-03-22T22:07:47.830Z,41.17
2019-03-22T22:09:50.056Z,40.60
2019-03-22T22:11:52.261Z,38.13
2019-03-22T22:13:54.461Z,38.70
2019-03-22T22:15:56.704Z,36.60
2019-03-22T22:17:58.909Z,36.57
2019-03-22T22:20:01.140Z,36.67
2019-03-22T22:22:03.440Z,37.20
2019-03-22T22:24:05.644Z,34.53
2019-03-22T22:26:07.866Z,37.40
2019-03-22T22:28:10.088Z,35.70
2019-03-22T22:30:12.347Z,35.83
2019-03-22T22:32:15.069Z,34.00
2019-03-22T22:34:17.268Z,33.80
2019-03-22T22:36:19.493Z,37.77
2019-03-22T22:38:21.969Z,37.47
2019-03-22T22:40:24.187Z,34.90
2019-03-22T22:42:26.408Z,29.37
2019-03-22T22:44:28.621Z,28.37
2019-03-22T22:46:30.855Z,32.20
2019-03-22T22:48:33.061Z,33.77
2019-03-22T22:50:35.282Z,27.20
2019-03-22T22:52:37.522Z,28.50
2019-03-22T22:54:39.718Z,29.30
2019-03-22T22:56:41.969Z,32.27
2019-03-22T22:58:44.165Z,33.27
2019-03-22T23:00:46.486Z,31.87
2019-03-22T23:02:48.790Z,29.27
2019-03-22T23:04:51.015Z,32.53
2019-03-22T23:06:53.229Z,32.40
2019-03-22T23:08:55.762Z,34.53
2019-03-22T23:10:57.980Z,34.10
2019-03-22T23:13:00.189Z,31.83
2019-03-22T23:15:02.547Z,31.53
2019-03-22T23:17:04.972Z,32.10
2019-03-22T23:19:07.195Z,32.13
2019-03-22T23:21:09.496Z,30.33
2019-03-22T23:23:11.702Z,30.93
2019-03-22T23:25:13.916Z,23.97
2019-03-22T23:27:16.134Z,23.27
2019-03-22T23:29:18.350Z,22.13
2019-03-22T23:31:20.561Z,26.60
2019-03-22T23:33:22.773Z,27.27
2019-03-22T23:35:25.434Z,31.40
2019-03-22T23:37:27.639Z,33.20
2019-03-22T23:39:29.841Z,31.27
2019-03-22T23:41:32.056Z,29.27
2019-03-22T23:43:34.270Z,31.30
2019-03-22T23:45:36.492Z,31.37
2019-03-22T23:47:38.689Z,30.60
2019-03-22T23:49:40.914Z,30.60
2019-03-22T23:51:43.381Z,31.00
2019-03-22T23:53:45.585Z,29.90
2019-03-22T23:55:47.800Z,30.10
2019-03-22T23:57:50.018Z,29.70
2019-03-22T23:59:52.225Z,29.53
